El Paso, TX (88590)

12:17 AM MDT on July 08, 2015 (GMT -0600)
Vista del Sol | | Change Station
CLOSE
Current Station
Personal Weather Station
Location: El Paso, TX
Elevation: 4010 ft
Nearby Weather Stations

Elev 4010 ft 31.76 °N, 106.34 °W | Updated 4 minutes ago

Overcast
Overcast
69.8 °F
Feels Like 69.8 °F
N
1.0
Wind Variable Wind from NE
Gusts 4.0 mph

Today
High -- | Low -- °F
--% Chance of Precip.
Yesterday
High -- | Low -- °F
Precip. -- in
6:06 AM 8:14 PM
Waning Gibbous, 57% visible
Pressure 29.82 in
Visibility 10.0 miles
Clouds Few 8000 ft
Few 11000 ft
Scattered Clouds 14000 ft
Mostly Cloudy 18000 ft
Mostly Cloudy 25000 ft
Dew Point 63 °F
Humidity 80%
Rainfall 0.00 in
Snow Depth Not available.
UV 0 out of 12
Pollen 3.10 out of 12
Air Quality Not available.
Flu Activity Not available.
METAR KELP 080551Z VRB03KT 10SM FEW080 FEW110 SCT140 BKN180 BKN250 21/16 A3003 RMK AO2 SLP096 60004 T02110161 10289 20211 50002

More Conditions Fewer Conditions

Pressure 29.82 in
Visibility 10.0 miles
Clouds Few 8000 ft
Few 11000 ft
Scattered Clouds 14000 ft
Mostly Cloudy 18000 ft
Mostly Cloudy 25000 ft
Dew Point 63 °F
Humidity 80%
Rainfall 0.00 in
Snow Depth Not available.
UV 0 out of 12
Pollen 3.10 out of 12
Air Quality Not available.
Flu Activity Not available.
METAR KELP 080551Z VRB03KT 10SM FEW080 FEW110 SCT140 BKN180 BKN250 21/16 A3003 RMK AO2 SLP096 60004 T02110161 10289 20211 50002

More Conditions Fewer Conditions

Nowcast | as of 11:00 PM MDT on July 7, 2015

At 1055pm MDT...National Weather Service Doppler radar showed a cluster of fairly weak thunderstorms and rain showers across Luna...southern Grant...and eastern Hidalgo counties in New Mexico. There was also another areas of rain showers and embedded thunderstorms over southern Hudspeth County in Texas. All of these areas of rain were tracking to the east. Some lightning will accompany these storms as they pass along with light to moderate rain with accumulations of one-quarter to one-half inches...and wind gusts to 25 mph. Additional storms may develop and move into Dona Ana and El Paso counties overnight.

×

10-Day Weather Forecast

×

Almanac

Astronomy

Jul. 08, 2015 Rise Set
Actual Time
Civil Twilight
Nautical Twilight
Astronomical Twilight
Moon
Length of Visible Light
Length of Day
Tomorrow will be .
, % of the Moon is Illuminated

Today's Extremes

State Highs State Lows

Community

WunderPhotos

Upload Photos

1,836,061 photos uploaded!

WunderBlogs® & News

Nearby

Air Quality

  Air Quality AQ Index Pollutant
Not available.

Snow Depth

Station Depth Elevation

Earthquake Activity

City Distance Mag. Time & Date
Minimum magnitude displayed is 2.5.

Coastal Water Temperatures

Place Temperature

Stations

Nearby Weather Stations

Station Location Temp. Windchill Dew Point Humidity Wind Precip. Elev Updated Type